Time;durP1;ratioP1;P1;durP2;ratioP2;P2;SDS_P1;SDS_P2;PMS_P1;PMS_P2;Temp;Humidity;BMP_temperature;BMP_pressure;BME280_temperature;BME280_humidity;BME280_pressure;Samples;Min_cycle;Max_cycle;Signal;HPM_P1;HPM_P2
2023/03/30 00:00:17;;;;;;;2.97;1.15;;;8.90;99.90;;;;;;5008466;28;20508;-54
2023/03/30 00:02:48;;;;;;;0.93;0.85;;;8.80;99.90;;;;;;4992287;28;20050;-52
2023/03/30 00:05:16;;;;;;;1.48;1.38;;;8.70;99.90;;;;;;4991994;28;20141;-51
2023/03/30 00:07:43;;;;;;;1.45;1.33;;;;;;;;;;4992086;28;20128;-54
2023/03/30 00:10:14;;;;;;;1.50;1.38;;;;;;;;;;4998900;28;20110;-52
2023/03/30 00:12:42;;;;;;;1.50;1.17;;;;;;;;;;4995113;28;20489;-54
2023/03/30 00:15:09;;;;;;;1.05;1.02;;;;;;;;;;5011668;28;20436;-50
2023/03/30 00:17:36;;;;;;;0.60;0.60;;;;;;;;;;5011228;28;20465;-56
2023/03/30 00:20:04;;;;;;;2.42;2.05;;;8.20;99.90;;;;;;5011520;28;20032;-52
2023/03/30 00:22:29;;;;;;;0.95;0.95;;;8.10;99.90;;;;;;5013351;28;20434;-50
2023/03/30 00:24:55;;;;;;;0.95;0.80;;;8.30;99.90;;;;;;5013632;28;20064;-49
2023/03/30 00:27:21;;;;;;;1.67;1.58;;;8.40;99.90;;;;;;5013255;28;20030;-53
2023/03/30 00:29:46;;;;;;;1.13;1.02;;;8.50;99.90;;;;;;5013627;28;20096;-50
2023/03/30 00:32:12;;;;;;;1.13;1.13;;;8.70;99.90;;;;;;5013486;28;20021;-49
2023/03/30 00:34:38;;;;;;;1.13;1.02;;;8.80;99.90;;;;;;5013162;28;20025;-52
2023/03/30 00:37:04;;;;;;;0.50;0.50;;;8.80;99.90;;;;;;5013522;28;20030;-53
2023/03/30 00:39:29;;;;;;;1.42;1.33;;;8.70;99.90;;;;;;5013370;28;20037;-52
2023/03/30 00:41:55;;;;;;;5.25;2.08;;;8.60;99.90;;;;;;5012355;28;20038;-54
2023/03/30 00:44:58;;;;;;;0.98;0.88;;;8.70;99.90;;;;;;5013540;28;20056;-49
2023/03/30 00:47:25;;;;;;;0.80;0.80;;;8.80;99.90;;;;;;5013334;28;20137;-53
2023/03/30 00:49:50;;;;;;;2.42;2.13;;;8.90;99.90;;;;;;5013188;28;20033;-54
2023/03/30 00:52:18;;;;;;;0.60;0.60;;;9.00;99.90;;;;;;5013354;28;20029;-52
2023/03/30 00:54:46;;;;;;;0.85;0.85;;;8.90;99.90;;;;;;5011488;28;20045;-48
2023/03/30 00:57:13;;;;;;;1.05;1.05;;;8.80;99.90;;;;;;5012986;28;20022;-52
2023/03/30 00:59:39;;;;;;;2.97;1.17;;;8.70;99.90;;;;;;5013152;28;20069;-52
2023/03/30 01:02:06;;;;;;;4.35;1.40;;;8.60;99.90;;;;;;5013208;28;20030;-49
2023/03/30 01:04:32;;;;;;;0.98;0.90;;;8.60;99.90;;;;;;5013487;28;20040;-52
2023/03/30 01:06:58;;;;;;;0.60;0.60;;;8.60;99.90;;;;;;5013446;28;20029;-51
2023/03/30 01:09:25;;;;;;;6.38;1.40;;;8.70;99.90;;;;;;5013426;28;20037;-48
2023/03/30 01:11:50;;;;;;;0.90;0.85;;;8.50;99.90;;;;;;5013172;28;20478;-52
2023/03/30 01:14:17;;;;;;;0.90;0.90;;;8.30;99.90;;;;;;4995943;28;20027;-48
2023/03/30 01:17:08;;;;;;;0.43;0.43;;;8.10;99.90;;;;;;4993296;28;20109;-46
2023/03/30 01:19:57;;;;;;;3.97;1.55;;;8.00;99.90;;;;;;4992194;28;20026;-52
2023/03/30 01:23:00;;;;;;;3.92;2.08;;;7.90;99.90;;;;;;4993199;28;20474;-49
2023/03/30 01:25:35;;;;;;;1.23;1.13;;;8.00;99.90;;;;;;4993325;28;20042;-50
2023/03/30 01:28:19;;;;;;;1.38;1.08;;;8.20;99.90;;;;;;4993198;28;20089;-50
2023/03/30 01:31:03;;;;;;;0.68;0.68;;;8.30;99.90;;;;;;4996079;28;20467;-48
2023/03/30 01:34:06;;;;;;;3.10;0.80;;;8.30;99.90;;;;;;4997132;28;20038;-53
2023/03/30 01:37:01;;;;;;;0.80;0.80;;;8.20;99.90;;;;;;4997260;28;20034;-51
2023/03/30 01:39:27;;;;;;;0.82;0.82;;;;;;;;;;4996993;28;20031;-55
2023/03/30 01:42:12;;;;;;;2.50;0.93;;;;;;;;;;4996726;28;20702;-49
2023/03/30 01:44:46;;;;;;;0.90;0.70;;;;;;;;;;4978775;28;20046;-49
2023/03/30 01:47:23;;;;;;;1.63;1.48;;;;;;;;;;4996722;28;20027;-50
2023/03/30 01:49:49;;;;;;;1.90;1.45;;;;;;;;;;5014022;28;20034;-55
2023/03/30 01:52:21;;;;;;;1.17;0.88;;;;;;;;;;5014041;28;20042;-50
2023/03/30 01:54:49;;;;;;;0.80;0.80;;;;;;;;;;5014072;28;20494;-50
2023/03/30 01:57:20;;;;;;;1.20;1.10;;;;;;;;;;5014001;28;20390;-52
2023/03/30 01:59:54;;;;;;;0.77;0.73;;;;;;;;;;5014111;28;20087;-47
2023/03/30 02:02:21;;;;;;;1.45;1.35;;;;;;;;;;5013938;28;20038;-46
2023/03/30 02:04:48;;;;;;;0.80;0.80;;;;;;;;;;5014005;28;20052;-51
2023/03/30 02:07:16;;;;;;;2.45;0.80;;;;;;;;;;4981184;28;20389;-51
2023/03/30 02:09:43;;;;;;;1.17;0.90;;;;;;;;;;5013673;28;20049;-53
2023/03/30 02:12:10;;;;;;;0.45;0.45;;;8.80;99.90;;;;;;5013859;28;20034;-55
2023/03/30 02:14:38;;;;;;;2.00;1.25;;;8.60;99.90;;;;;;5013744;28;20121;-53
2023/03/30 02:17:17;;;;;;;1.73;0.73;;;8.60;99.90;;;;;;5022152;28;20037;-52
2023/03/30 02:19:50;;;;;;;1.77;1.40;;;8.50;99.90;;;;;;5032202;28;20033;-51
2023/03/30 02:22:17;;;;;;;1.60;1.38;;;8.40;99.90;;;;;;5015710;28;20060;-48
2023/03/30 02:24:47;;;;;;;0.95;0.93;;;8.10;99.90;;;;;;5015801;28;20108;-51
2023/03/30 02:27:14;;;;;;;1.17;1.08;;;8.10;99.90;;;;;;5015700;28;20033;-53
2023/03/30 02:29:42;;;;;;;1.50;1.02;;;7.90;99.90;;;;;;5015688;28;20390;-54
2023/03/30 02:32:17;;;;;;;2.17;0.93;;;8.00;99.90;;;;;;5015977;28;20030;-53
2023/03/30 02:34:59;;;;;;;1.20;1.10;;;8.00;99.90;;;;;;4997328;28;20038;-51
2023/03/30 02:38:01;;;;;;;3.87;1.90;;;7.90;99.90;;;;;;5015895;28;20030;-54
2023/03/30 02:40:59;;;;;;;1.88;1.75;;;8.10;99.90;;;;;;5012074;28;20034;-51
2023/03/30 02:43:48;;;;;;;1.02;0.95;;;8.20;99.90;;;;;;4993693;28;20081;-54
2023/03/30 02:46:52;;;;;;;4.15;0.60;;;8.20;99.90;;;;;;4993521;28;20042;-49
2023/03/30 02:49:30;;;;;;;1.00;1.00;;;8.10;99.90;;;;;;4989983;28;20110;-50
2023/03/30 02:52:04;;;;;;;2.63;1.40;;;8.10;99.90;;;;;;4979398;28;20521;-53
2023/03/30 02:54:30;;;;;;;0.60;0.60;;;8.00;99.90;;;;;;4993434;28;20398;-48
2023/03/30 02:57:20;;;;;;;1.08;0.98;;;7.80;99.90;;;;;;4993437;28;20035;-51
2023/03/30 03:00:12;;;;;;;0.35;0.35;;;7.80;99.90;;;;;;4993301;28;20116;-50
2023/03/30 03:02:42;;;;;;;0.90;0.90;;;7.70;99.90;;;;;;4977033;28;20533;-45
2023/03/30 03:05:11;;;;;;;1.85;0.73;;;7.60;99.90;;;;;;4993245;28;20030;-53
2023/03/30 03:07:39;;;;;;;0.90;0.70;;;7.60;99.90;;;;;;4993117;28;20042;-48
2023/03/30 03:10:06;;;;;;;0.85;0.70;;;7.60;99.90;;;;;;4993168;28;20152;-51
2023/03/30 03:12:33;;;;;;;1.00;0.98;;;7.70;99.90;;;;;;4976380;28;20045;-46
2023/03/30 03:15:00;;;;;;;0.60;0.60;;;7.70;99.90;;;;;;4992994;28;20034;-54
2023/03/30 03:17:28;;;;;;;0.45;0.45;;;7.60;99.90;;;;;;4992498;28;20127;-50
2023/03/30 03:19:54;;;;;;;0.57;0.57;;;7.70;99.90;;;;;;4985327;28;20049;-52
2023/03/30 03:22:20;;;;;;;1.08;0.98;;;7.50;99.90;;;;;;4973494;28;20034;-50
2023/03/30 03:24:45;;;;;;;0.45;0.43;;;7.50;99.90;;;;;;4975454;28;20057;-47
2023/03/30 03:27:11;;;;;;;0.70;0.70;;;7.50;99.90;;;;;;4993730;28;20061;-46
2023/03/30 03:29:37;;;;;;;3.00;0.60;;;7.70;99.90;;;;;;4993003;28;20060;-51
2023/03/30 03:32:02;;;;;;;2.33;0.93;;;7.90;99.90;;;;;;4995000;28;20030;-51
2023/03/30 03:34:31;;;;;;;1.27;1.23;;;;;;;;;;4994689;28;20034;-47
2023/03/30 03:36:58;;;;;;;3.05;1.23;;;7.80;99.90;;;;;;4994870;28;20034;-49
2023/03/30 03:39:23;;;;;;;1.80;0.85;;;7.80;99.90;;;;;;4995081;28;20026;-47
2023/03/30 03:41:49;;;;;;;0.60;0.60;;;7.60;99.90;;;;;;4994634;28;20470;-54
2023/03/30 03:44:15;;;;;;;2.40;1.42;;;7.70;99.90;;;;;;4992788;28;20093;-52
2023/03/30 03:46:40;;;;;;;2.97;1.13;;;7.50;99.90;;;;;;4992592;28;20046;-50
2023/03/30 03:49:06;;;;;;;0.50;0.50;;;7.70;99.90;;;;;;4994932;28;20088;-52
2023/03/30 03:51:32;;;;;;;1.73;1.27;;;7.50;99.90;;;;;;4994756;28;20458;-53
2023/03/30 03:53:59;;;;;;;2.05;0.90;;;7.60;99.90;;;;;;4991711;28;20445;-51
2023/03/30 03:56:25;;;;;;;1.55;1.17;;;7.20;99.90;;;;;;4994452;28;20482;-51
2023/03/30 03:58:51;;;;;;;1.20;1.05;;;7.30;99.90;;;;;;4994358;28;20057;-48
2023/03/30 04:01:17;;;;;;;0.60;0.60;;;7.30;99.90;;;;;;5001449;28;20030;-52
2023/03/30 04:03:43;;;;;;;0.52;0.52;;;7.00;99.90;;;;;;5013861;28;20029;-50
2023/03/30 04:06:09;;;;;;;0.85;0.85;;;7.10;99.90;;;;;;5014318;28;20036;-46
2023/03/30 04:08:35;;;;;;;7.13;1.30;;;7.20;99.90;;;;;;5013857;28;20108;-52
2023/03/30 04:11:11;;;;;;;0.40;0.40;;;7.30;99.90;;;;;;4995098;28;20116;-48
2023/03/30 04:13:38;;;;;;;3.30;1.08;;;7.10;99.90;;;;;;5013934;28;20042;-55
2023/03/30 04:16:05;;;;;;;0.93;0.70;;;7.20;99.90;;;;;;5005538;28;20493;-49
2023/03/30 04:18:32;;;;;;;1.90;1.48;;;7.00;99.90;;;;;;4992513;28;20073;-52
2023/03/30 04:21:01;;;;;;;2.42;1.55;;;6.80;99.90;;;;;;5009525;28;20069;-52
2023/03/30 04:23:32;;;;;;;0.77;0.77;;;6.80;99.90;;;;;;5005139;28;20501;-46
2023/03/30 04:26:06;;;;;;;0.88;0.70;;;6.90;99.90;;;;;;5008165;28;20040;-49
2023/03/30 04:28:33;;;;;;;2.03;0.57;;;7.00;99.90;;;;;;5001180;28;20033;-50
2023/03/30 04:31:03;;;;;;;2.08;0.90;;;6.90;99.90;;;;;;4993934;28;20038;-47
2023/03/30 04:33:29;;;;;;;0.82;0.82;;;6.90;99.90;;;;;;4994068;28;20419;-51
2023/03/30 04:35:55;;;;;;;1.42;1.33;;;6.90;99.90;;;;;;4993763;28;20386;-53
2023/03/30 04:38:21;;;;;;;0.43;0.43;;;6.80;99.90;;;;;;4994201;28;20054;-51
2023/03/30 04:40:51;;;;;;;0.98;0.57;;;6.70;99.90;;;;;;4994186;28;20058;-51
2023/03/30 04:43:21;;;;;;;0.30;0.30;;;6.40;99.90;;;;;;4998244;28;20062;-49
2023/03/30 04:45:49;;;;;;;0.63;0.57;;;6.60;99.90;;;;;;4993660;28;20027;-51
2023/03/30 04:48:16;;;;;;;0.65;0.65;;;6.50;99.90;;;;;;4997413;28;20133;-47
2023/03/30 04:50:42;;;;;;;0.95;0.95;;;6.40;99.90;;;;;;5006307;28;20489;-51
2023/03/30 04:53:09;;;;;;;0.70;0.70;;;6.30;99.90;;;;;;5003309;28;20478;-49
2023/03/30 04:55:35;;;;;;;0.30;0.30;;;6.30;99.90;;;;;;5002259;28;20068;-54
2023/03/30 04:58:01;;;;;;;0.65;0.57;;;6.50;99.90;;;;;;5004765;28;20116;-48
2023/03/30 05:00:27;;;;;;;3.25;0.73;;;6.60;99.90;;;;;;5008223;28;20488;-51
2023/03/30 05:02:54;;;;;;;0.30;0.30;;;6.60;99.90;;;;;;5007168;28;20036;-51
2023/03/30 05:05:20;;;;;;;0.38;0.38;;;6.70;99.90;;;;;;5006817;28;20022;-52
2023/03/30 05:07:45;;;;;;;1.05;1.05;;;6.80;99.90;;;;;;4999183;28;20030;-51
2023/03/30 05:10:11;;;;;;;0.28;0.28;;;6.70;99.90;;;;;;5012909;28;20046;-54
2023/03/30 05:12:37;;;;;;;0.70;0.70;;;6.60;99.90;;;;;;4998793;28;20022;-47
2023/03/30 05:15:03;;;;;;;0.73;0.73;;;6.60;99.90;;;;;;4999932;28;20030;-52
2023/03/30 05:17:33;;;;;;;2.13;1.00;;;6.60;99.90;;;;;;5015232;28;20038;-47
2023/03/30 05:19:59;;;;;;;1.65;0.77;;;6.60;99.90;;;;;;5017112;28;20029;-50
2023/03/30 05:22:25;;;;;;;0.55;0.52;;;6.60;99.90;;;;;;5016756;28;20025;-43
2023/03/30 05:24:51;;;;;;;4.13;0.95;;;6.80;99.90;;;;;;5012691;28;20077;-44
2023/03/30 05:27:17;;;;;;;1.15;1.00;;;7.10;99.90;;;;;;4995485;28;20047;-47
2023/03/30 05:29:43;;;;;;;0.82;0.77;;;7.30;99.90;;;;;;4997115;28;20033;-43
2023/03/30 05:32:09;;;;;;;1.85;1.02;;;7.20;99.90;;;;;;5004929;28;20027;-49
2023/03/30 05:34:35;;;;;;;0.52;0.52;;;7.30;99.90;;;;;;4995087;28;20121;-44
2023/03/30 05:37:01;;;;;;;1.33;1.00;;;7.60;99.90;;;;;;5014997;28;20573;-47
2023/03/30 05:39:27;;;;;;;1.30;1.20;;;7.50;99.90;;;;;;5015541;28;20466;-49
2023/03/30 05:41:53;;;;;;;0.73;0.55;;;7.60;99.90;;;;;;5016437;28;20069;-47
2023/03/30 05:44:18;;;;;;;0.52;0.52;;;7.60;99.90;;;;;;5014367;28;20037;-45
2023/03/30 05:46:44;;;;;;;0.40;0.30;;;7.90;99.90;;;;;;5016647;28;20065;-50
2023/03/30 05:49:10;;;;;;;0.70;0.38;;;7.70;99.90;;;;;;5016510;28;20022;-49
2023/03/30 05:51:36;;;;;;;0.30;0.30;;;7.80;99.90;;;;;;5016238;28;20072;-48
2023/03/30 05:54:02;;;;;;;0.50;0.50;;;7.60;99.90;;;;;;5016415;28;20112;-52
2023/03/30 05:56:29;;;;;;;1.05;0.90;;;7.50;99.90;;;;;;5014692;28;20034;-45
2023/03/30 05:58:55;;;;;;;0.30;0.30;;;7.70;99.90;;;;;;5016426;28;20041;-48
2023/03/30 06:01:20;;;;;;;2.10;0.85;;;7.80;99.90;;;;;;5016186;28;20385;-49
2023/03/30 06:03:46;;;;;;;0.40;0.40;;;7.80;99.90;;;;;;5014552;28;20490;-49
2023/03/30 06:06:13;;;;;;;1.85;0.93;;;7.80;99.90;;;;;;5016531;28;20529;-48
2023/03/30 06:08:40;;;;;;;1.10;0.73;;;8.00;99.90;;;;;;5016069;28;20026;-49
2023/03/30 06:11:06;;;;;;;1.77;1.63;;;8.20;99.90;;;;;;5016014;28;20037;-50
2023/03/30 06:13:32;;;;;;;0.80;0.80;;;8.40;99.90;;;;;;5014250;28;20065;-47
2023/03/30 06:15:58;;;;;;;1.20;1.00;;;8.70;99.90;;;;;;5015243;28;20164;-50
2023/03/30 06:18:25;;;;;;;1.60;1.00;;;;;;;;;;5016023;28;20053;-46
2023/03/30 06:20:51;;;;;;;1.25;1.00;;;;;;;;;;5016238;28;20446;-50
2023/03/30 06:23:17;;;;;;;0.88;0.60;;;9.50;99.90;;;;;;5015598;28;20060;-47
2023/03/30 06:25:51;;;;;;;0.70;0.70;;;9.50;99.90;;;;;;5014092;28;20056;-46
2023/03/30 06:28:18;;;;;;;0.55;0.50;;;9.60;99.90;;;;;;5015733;28;20034;-48
2023/03/30 06:30:47;;;;;;;0.28;0.28;;;9.70;99.90;;;;;;5016188;28;20046;-43
2023/03/30 06:33:17;;;;;;;1.17;1.00;;;9.80;99.90;;;;;;5015586;28;20041;-47
2023/03/30 06:35:47;;;;;;;1.85;0.70;;;10.00;99.90;;;;;;5015529;28;20030;-47
2023/03/30 06:38:15;;;;;;;2.53;1.15;;;10.20;99.90;;;;;;5016094;28;20091;-50
2023/03/30 06:40:41;;;;;;;0.30;0.30;;;10.50;99.90;;;;;;5015542;28;20030;-49
2023/03/30 06:43:07;;;;;;;1.05;0.63;;;10.70;99.90;;;;;;5013673;28;20034;-50
2023/03/30 06:45:33;;;;;;;1.65;0.73;;;11.20;99.90;;;;;;5015382;28;20433;-54
2023/03/30 06:47:59;;;;;;;0.95;0.80;;;11.70;99.90;;;;;;5015539;28;20029;-49
2023/03/30 06:50:24;;;;;;;0.50;0.50;;;12.00;99.90;;;;;;5015378;28;20350;-50
2023/03/30 06:52:51;;;;;;;0.70;0.70;;;;;;;;;;5015610;28;20053;-54
2023/03/30 06:55:17;;;;;;;1.30;0.95;;;12.80;99.90;;;;;;5016043;28;20033;-50
2023/03/30 06:57:42;;;;;;;1.15;0.80;;;13.00;99.90;;;;;;5015091;28;20401;-51
2023/03/30 07:00:12;;;;;;;1.02;0.60;;;13.30;99.90;;;;;;5015336;28;20048;-47
2023/03/30 07:02:42;;;;;;;1.02;0.95;;;13.10;99.90;;;;;;5015295;28;20060;-50
2023/03/30 07:05:08;;;;;;;0.70;0.65;;;12.70;99.90;;;;;;5015299;28;20061;-52
2023/03/30 07:07:35;;;;;;;1.15;0.77;;;12.70;99.90;;;;;;5014773;28;20036;-47
2023/03/30 07:10:08;;;;;;;0.68;0.68;;;12.90;99.90;;;;;;5014877;28;20495;-52
2023/03/30 07:12:35;;;;;;;0.88;0.88;;;13.10;99.90;;;;;;5013027;28;20046;-49
2023/03/30 07:15:02;;;;;;;2.17;1.60;;;13.50;99.90;;;;;;5015099;28;20029;-52
2023/03/30 07:17:28;;;;;;;4.22;0.75;;;13.60;99.90;;;;;;4996925;28;20129;-48
2023/03/30 07:19:53;;;;;;;0.63;0.60;;;13.90;99.90;;;;;;5015093;28;20607;-51
2023/03/30 07:22:20;;;;;;;0.60;0.60;;;;;;;;;;5029485;28;20057;-51
2023/03/30 07:24:45;;;;;;;0.65;0.65;;;14.30;99.90;;;;;;5012482;28;20093;-46
2023/03/30 07:27:12;;;;;;;2.40;0.55;;;;;;;;;;5014506;28;20026;-49
2023/03/30 07:29:37;;;;;;;1.40;1.30;;;15.00;99.90;;;;;;5012766;28;20105;-48
2023/03/30 07:32:03;;;;;;;1.25;1.05;;;;;;;;;;5014545;28;20141;-52
2023/03/30 07:34:32;;;;;;;0.68;0.68;;;;;;;;;;4980167;28;20108;-47
2023/03/30 07:36:58;;;;;;;0.52;0.52;;;;;;;;;;5014498;28;20449;-47
2023/03/30 07:39:24;;;;;;;0.65;0.65;;;;;;;;;;5013129;28;20484;-53
2023/03/30 07:41:50;;;;;;;0.65;0.50;;;16.40;99.90;;;;;;5012573;28;20569;-47
2023/03/30 07:44:16;;;;;;;0.80;0.80;;;16.60;99.90;;;;;;5014462;28;20101;-50
2023/03/30 07:46:42;;;;;;;2.95;1.17;;;;;;;;;;5012464;28;20030;-49
2023/03/30 07:49:08;;;;;;;0.80;0.68;;;16.60;98.60;;;;;;5012499;28;20059;-49
2023/03/30 07:51:34;;;;;;;1.02;0.60;;;17.00;98.40;;;;;;5014125;28;20470;-53
2023/03/30 07:54:00;;;;;;;1.65;0.57;;;16.90;99.90;;;;;;5014613;28;20386;-53
2023/03/30 07:56:26;;;;;;;1.35;0.80;;;;;;;;;;5014081;28;20037;-48
2023/03/30 07:58:52;;;;;;;1.75;1.55;;;17.40;99.90;;;;;;5011970;28;20053;-50
2023/03/30 08:01:18;;;;;;;0.50;0.50;;;17.40;96.40;;;;;;5014282;28;20441;-51
2023/03/30 08:03:44;;;;;;;0.90;0.90;;;;;;;;;;5014232;28;20120;-46
2023/03/30 08:06:11;;;;;;;0.80;0.70;;;;;;;;;;5014201;28;20030;-49
2023/03/30 08:08:39;;;;;;;1.05;0.68;;;17.70;95.00;;;;;;5013799;28;20044;-52
2023/03/30 08:11:07;;;;;;;0.60;0.60;;;;;;;;;;5013790;28;20045;-49
2023/03/30 08:13:36;;;;;;;0.73;0.73;;;;;;;;;;5013941;28;20371;-52
2023/03/30 08:16:01;;;;;;;2.05;0.95;;;18.40;94.40;;;;;;5012045;28;20037;-51
2023/03/30 08:18:27;;;;;;;0.65;0.52;;;18.20;94.00;;;;;;5013808;28;20377;-48
2023/03/30 08:20:54;;;;;;;0.35;0.35;;;18.00;93.30;;;;;;5013693;28;20025;-45
2023/03/30 08:23:20;;;;;;;0.52;0.52;;;;;;;;;;5011731;28;20053;-48
2023/03/30 08:25:51;;;;;;;0.35;0.35;;;19.30;93.30;;;;;;5010604;28;20442;-47
2023/03/30 08:28:17;;;;;;;0.65;0.60;;;;;;;;;;4990851;28;20045;-45
2023/03/30 08:30:43;;;;;;;0.47;0.47;;;;;;;;;;5006236;28;20048;-50
2023/03/30 08:33:09;;;;;;;0.22;0.22;;;19.70;92.50;;;;;;5007899;28;20065;-50
2023/03/30 08:35:34;;;;;;;1.17;0.57;;;19.70;90.20;;;;;;5008180;28;20045;-55
2023/03/30 08:38:00;;;;;;;0.45;0.43;;;;;;;;;;5009238;28;20026;-50
2023/03/30 08:40:27;;;;;;;0.40;0.38;;;;;;;;;;5010505;28;20112;-50
2023/03/30 08:43:11;;;;;;;0.35;0.35;;;;;;;;;;5025921;28;20068;-53
2023/03/30 08:45:39;;;;;;;0.60;0.50;;;;;;;;;;5009647;28;20029;-49
2023/03/30 08:48:14;;;;;;;0.35;0.32;;;20.50;86.20;;;;;;4980115;28;20040;-49
2023/03/30 08:50:41;;;;;;;0.32;0.32;;;;;;;;;;4985597;28;20054;-48
2023/03/30 08:53:07;;;;;;;0.32;0.32;;;21.20;99.90;;;;;;4996217;28;20499;-50
2023/03/30 08:56:14;;;;;;;0.52;0.52;;;21.70;86.20;;;;;;4981553;28;20065;-51
2023/03/30 08:58:57;;;;;;;0.30;0.25;;;22.20;82.40;;;;;;4966249;28;20046;-51
2023/03/30 09:01:42;;;;;;;0.55;0.30;;;;;;;;;;4991579;28;20145;-49
2023/03/30 09:04:10;;;;;;;0.70;0.28;;;22.70;81.10;;;;;;4995954;28;20613;-51
2023/03/30 09:06:50;;;;;;;0.30;0.17;;;22.80;79.80;;;;;;4960812;28;20486;-50
2023/03/30 09:09:22;;;;;;;0.25;0.25;;;22.80;80.60;;;;;;4991504;28;20039;-49
2023/03/30 09:11:55;;;;;;;0.10;0.10;;;22.70;80.60;;;;;;4975202;28;20062;-47
2023/03/30 09:14:34;;;;;;;0.63;0.20;;;22.40;80.00;;;;;;4991475;28;20112;-47
2023/03/30 09:17:11;;;;;;;0.90;0.52;;;22.30;80.10;;;;;;4991459;28;20041;-46
2023/03/30 09:20:00;;;;;;;1.63;1.05;;;21.90;80.50;;;;;;4991342;28;20117;-49
2023/03/30 09:22:48;;;;;;;0.45;0.28;;;21.50;82.30;;;;;;4991223;28;20125;-48
2023/03/30 09:25:36;;;;;;;0.25;0.25;;;21.10;81.40;;;;;;4998755;28;20512;-45
2023/03/30 09:28:22;;;;;;;1.15;0.63;;;;;;;;;;4978257;28;20117;-50
2023/03/30 09:30:58;;;;;;;1.88;1.40;;;19.90;82.90;;;;;;5012990;28;20069;-50
2023/03/30 09:33:32;;;;;;;0.10;0.10;;;19.90;82.00;;;;;;5013242;28;20029;-49
2023/03/30 09:36:14;;;;;;;0.75;0.75;;;20.00;82.70;;;;;;5012916;28;20382;-50
2023/03/30 09:38:41;;;;;;;0.30;0.30;;;19.80;83.30;;;;;;5007843;28;20029;-49
2023/03/30 09:41:43;;;;;;;0.40;0.40;;;19.80;84.00;;;;;;5001278;28;20034;-48
2023/03/30 09:44:15;;;;;;;;;;;19.90;85.00;;;;;;5014119;28;20034;-50
2023/03/30 09:46:41;;;;;;;0.20;0.20;;;19.80;82.70;;;;;;5012847;28;19906;-44
2023/03/30 09:49:14;;;;;;;0.52;0.22;;;20.00;82.20;;;;;;5013163;28;20030;-47
2023/03/30 09:52:19;;;;;;;0.30;0.30;;;19.70;84.40;;;;;;5015368;28;20096;-47
2023/03/30 09:54:45;;;;;;;1.02;0.70;;;19.50;84.60;;;;;;4997893;28;20125;-48
2023/03/30 09:57:31;;;;;;;0.20;0.20;;;19.70;82.40;;;;;;5014184;28;20537;-47
2023/03/30 09:59:59;;;;;;;1.02;0.82;;;19.40;83.90;;;;;;5014139;28;20030;-48
2023/03/30 10:02:27;;;;;;;1.65;0.93;;;19.60;84.20;;;;;;5014111;28;20032;-48
2023/03/30 10:04:56;;;;;;;0.20;0.20;;;19.90;86.50;;;;;;4994296;28;20154;-50
2023/03/30 10:07:27;;;;;;;0.75;0.75;;;19.80;83.80;;;;;;4994875;28;20125;-43
2023/03/30 10:09:54;;;;;;;0.47;0.32;;;20.20;84.90;;;;;;4994248;28;20042;-46
2023/03/30 10:12:21;;;;;;;0.63;0.63;;;20.30;84.10;;;;;;4977961;28;20054;-46
2023/03/30 10:14:53;;;;;;;0.35;0.35;;;20.60;83.70;;;;;;4994292;28;20098;-46
2023/03/30 10:17:26;;;;;;;0.40;0.40;;;20.10;83.30;;;;;;4993971;28;20034;-44
2023/03/30 10:20:14;;;;;;;0.47;0.47;;;20.30;82.10;;;;;;4994300;28;20081;-47
2023/03/30 10:23:12;;;;;;;0.30;0.30;;;21.00;82.40;;;;;;4993798;28;20034;-45
2023/03/30 10:25:41;;;;;;;0.30;0.30;;;22.10;82.80;;;;;;4993802;28;20053;-48
2023/03/30 10:28:23;;;;;;;0.52;0.40;;;22.20;81.40;;;;;;4994056;28;20023;-44
2023/03/30 10:30:56;;;;;;;0.10;0.10;;;22.80;79.60;;;;;;4994011;28;20050;-45
2023/03/30 10:33:23;;;;;;;0.47;0.47;;;;;;;;;;4961419;28;20482;-44
2023/03/30 10:35:55;;;;;;;0.28;0.28;;;23.30;93.00;;;;;;5004438;28;20403;-48
2023/03/30 10:38:22;;;;;;;0.28;0.28;;;;;;;;;;5015513;28;20116;-47
2023/03/30 10:40:50;;;;;;;0.22;0.22;;;;;;;;;;5015494;28;20080;-50
2023/03/30 10:43:28;;;;;;;0.22;0.22;;;23.20;77.60;;;;;;5013661;28;20444;-46
2023/03/30 10:46:10;;;;;;;0.40;0.40;;;23.20;78.00;;;;;;5015572;28;20025;-45
2023/03/30 10:48:36;;;;;;;;;;;;;;;;;;5015755;28;20121;-49
2023/03/30 10:51:02;;;;;;;0.20;0.20;;;;;;;;;;5029907;28;20004;-48
2023/03/30 10:53:44;;;;;;;0.65;0.52;;;;;;;;;;5013368;28;20048;-44
2023/03/30 10:56:40;;;;;;;0.40;0.40;;;24.00;78.40;;;;;;5013527;28;20038;-46
2023/03/30 10:59:37;;;;;;;0.20;0.20;;;23.70;76.60;;;;;;5015279;28;20029;-46
2023/03/30 11:02:12;;;;;;;0.20;0.20;;;;;;;;;;5014801;28;20022;-47
2023/03/30 11:04:43;;;;;;;0.10;0.10;;;25.30;88.50;;;;;;5015284;28;20095;-47
2023/03/30 11:07:19;;;;;;;0.20;0.20;;;25.20;76.20;;;;;;5014960;28;20030;-46
2023/03/30 11:09:53;;;;;;;0.50;0.40;;;25.10;77.60;;;;;;5015310;28;20037;-49
2023/03/30 11:12:21;;;;;;;0.45;0.45;;;;;;;;;;5014969;28;20069;-46
2023/03/30 11:14:47;;;;;;;0.45;0.20;;;;;;;;;;5014731;28;20030;-48
2023/03/30 11:17:26;;;;;;;0.20;0.20;;;25.80;97.20;;;;;;5013010;28;20156;-48
2023/03/30 11:19:55;;;;;;;0.17;0.17;;;25.80;91.00;;;;;;5015360;28;20119;-47
2023/03/30 11:22:30;;;;;;;0.10;0.10;;;;;;;;;;5046280;28;20044;-48
2023/03/30 11:24:57;;;;;;;1.25;0.40;;;;;;;;;;5014624;28;20042;-45
2023/03/30 11:27:32;;;;;;;0.50;0.50;;;26.00;72.70;;;;;;5012922;28;20389;-44
2023/03/30 11:30:01;;;;;;;0.20;0.20;;;;;;;;;;5014749;28;20030;-48
2023/03/30 11:32:46;;;;;;;0.55;0.28;;;;;;;;;;4996482;28;20128;-43
2023/03/30 11:35:32;;;;;;;0.13;0.13;;;26.70;72.70;;;;;;5012807;28;20049;-48
2023/03/30 11:38:11;;;;;;;0.30;0.30;;;;;;;;;;5013796;28;20608;-44
2023/03/30 11:40:37;;;;;;;0.40;0.40;;;;;;;;;;5014344;28;20391;-45
2023/03/30 11:43:03;;;;;;;0.40;0.40;;;25.40;98.00;;;;;;5013917;28;20543;-47
2023/03/30 11:45:35;;;;;;;0.15;0.15;;;24.50;74.20;;;;;;5014377;28;20026;-48
2023/03/30 11:48:06;;;;;;;;;;;24.40;73.50;;;;;;5014544;28;20176;-47
2023/03/30 11:51:02;;;;;;;0.40;0.40;;;24.30;74.40;;;;;;5028651;28;20285;-47
2023/03/30 11:53:52;;;;;;;0.43;0.43;;;24.50;75.30;;;;;;5014744;28;20060;-48
2023/03/30 11:56:27;;;;;;;0.32;0.32;;;;;;;;;;5014080;28;20033;-49
2023/03/30 11:59:01;;;;;;;0.30;0.30;;;25.60;82.00;;;;;;5014098;28;20042;-44
2023/03/30 12:01:37;;;;;;;0.20;0.20;;;;;;;;;;5014365;28;20037;-48
2023/03/30 12:04:11;;;;;;;0.20;0.20;;;;;;;;;;5014306;28;20042;-47
2023/03/30 12:06:47;;;;;;;0.65;0.50;;;26.10;74.30;;;;;;5014005;28;20029;-49
2023/03/30 12:09:37;;;;;;;0.40;0.40;;;26.10;73.70;;;;;;5014258;28;20108;-47
2023/03/30 12:12:03;;;;;;;0.25;0.25;;;;;;;;;;4995651;28;20120;-45
2023/03/30 12:14:35;;;;;;;0.57;0.40;;;24.50;99.90;;;;;;5013392;28;20034;-49
2023/03/30 12:17:24;;;;;;;;;;;25.30;74.70;;;;;;5014486;28;20033;-44
2023/03/30 12:20:08;;;;;;;0.30;0.30;;;25.60;84.80;;;;;;5012999;28;20306;-47
2023/03/30 12:22:40;;;;;;;0.45;0.45;;;;;;;;;;5012173;28;20564;-47
2023/03/30 12:25:13;;;;;;;0.93;0.38;;;25.70;74.30;;;;;;5012184;28;20018;-48
2023/03/30 12:27:57;;;;;;;0.90;0.40;;;25.10;75.10;;;;;;5035347;28;20125;-47
2023/03/30 12:30:25;;;;;;;0.30;0.30;;;24.70;74.10;;;;;;5004174;28;20454;-48
2023/03/30 12:33:17;;;;;;;0.40;0.40;;;24.60;73.80;;;;;;4993796;28;20058;-44
2023/03/30 12:35:48;;;;;;;0.20;0.20;;;24.00;74.00;;;;;;4987255;28;20122;-48
2023/03/30 12:38:24;;;;;;;0.60;0.20;;;24.60;73.90;;;;;;4999738;28;20037;-55
2023/03/30 12:41:17;;;;;;;0.45;0.28;;;25.30;74.80;;;;;;4999632;28;20087;-50
2023/03/30 12:44:00;;;;;;;0.40;0.30;;;;;;;;;;4993439;28;20040;-51
2023/03/30 12:47:00;;;;;;;0.40;0.40;;;25.60;73.20;;;;;;4994082;28;20027;-49
2023/03/30 12:49:45;;;;;;;0.30;0.30;;;;;;;;;;4994307;28;20042;-48
2023/03/30 12:52:52;;;;;;;0.38;0.35;;;26.00;74.50;;;;;;4993075;28;20141;-57
2023/03/30 12:55:30;;;;;;;0.55;0.50;;;26.10;74.40;;;;;;5019664;28;20042;-55
2023/03/30 12:58:29;;;;;;;0.75;0.20;;;24.80;73.30;;;;;;5019449;28;20018;-51
2023/03/30 13:01:16;;;;;;;0.30;0.30;;;25.00;73.50;;;;;;5018999;28;20048;-57
2023/03/30 13:03:48;;;;;;;0.70;0.63;;;24.40;74.00;;;;;;5029472;28;20108;-55
2023/03/30 13:06:29;;;;;;;;;;;24.10;73.80;;;;;;5020936;28;20070;-56
2023/03/30 13:09:13;;;;;;;0.30;0.30;;;;;;;;;;5018824;28;19909;-49
2023/03/30 13:11:59;;;;;;;0.38;0.38;;;25.50;95.00;;;;;;5019340;28;20591;-57
2023/03/30 13:14:34;;;;;;;1.02;0.40;;;25.10;74.70;;;;;;5010525;28;20745;-53
2023/03/30 13:16:59;;;;;;;0.28;0.28;;;25.70;74.10;;;;;;5019376;28;20022;-51
2023/03/30 13:19:28;;;;;;;0.80;0.43;;;;;;;;;;5017879;28;20042;-55
2023/03/30 13:22:09;;;;;;;0.60;0.40;;;25.80;78.10;;;;;;5026272;28;20052;-55
2023/03/30 13:24:40;;;;;;;0.22;0.22;;;;;;;;;;5029195;28;20049;-52
2023/03/30 13:27:17;;;;;;;0.30;0.30;;;26.10;72.70;;;;;;5033028;28;20029;-55
2023/03/30 13:30:02;;;;;;;0.30;0.25;;;;;;;;;;5034356;28;20026;-53
2023/03/30 13:32:34;;;;;;;0.85;0.40;;;25.80;72.00;;;;;;5008580;28;20046;-55
2023/03/30 13:35:23;;;;;;;0.30;0.22;;;26.10;73.00;;;;;;4997095;28;20026;-55
2023/03/30 13:38:18;;;;;;;0.20;0.20;;;26.40;73.10;;;;;;4997020;28;20042;-49
2023/03/30 13:41:04;;;;;;;0.20;0.20;;;;;;;;;;4994861;28;20035;-56